sensor_id;sensor_type;location;lat;lon;timestamp;pressure;altitude;pressure_sealevel;temperature;humidity
63321;BME280;49449;48.800;9.534;2023-03-22T00:00:31;98414.59;;;11.14;38.34
63321;BME280;49449;48.800;9.534;2023-03-22T00:03:02;98419.66;;;11.16;38.24
63321;BME280;49449;48.800;9.534;2023-03-22T00:05:31;98425.00;;;11.21;38.35
63321;BME280;49449;48.800;9.534;2023-03-22T00:07:59;98417.91;;;11.22;38.11
63321;BME280;49449;48.800;9.534;2023-03-22T00:10:31;98418.88;;;11.04;38.29
63321;BME280;49449;48.800;9.534;2023-03-22T00:13:00;98430.47;;;10.91;38.40
63321;BME280;49449;48.800;9.534;2023-03-22T00:15:27;98427.03;;;10.90;38.25
63321;BME280;49449;48.800;9.534;2023-03-22T00:17:57;98419.31;;;10.77;38.54
63321;BME280;49449;48.800;9.534;2023-03-22T00:20:26;98421.03;;;10.71;38.52
63321;BME280;49449;48.800;9.534;2023-03-22T00:22:56;98418.50;;;10.65;38.35
63321;BME280;49449;48.800;9.534;2023-03-22T00:25:24;98409.34;;;10.43;38.81
63321;BME280;49449;48.800;9.534;2023-03-22T00:27:51;98406.94;;;10.42;38.63
63321;BME280;49449;48.800;9.534;2023-03-22T00:30:19;98409.69;;;10.35;38.85
63321;BME280;49449;48.800;9.534;2023-03-22T00:32:47;98401.66;;;10.42;38.93
63321;BME280;49449;48.800;9.534;2023-03-22T00:35:16;98402.22;;;10.44;38.78
63321;BME280;49449;48.800;9.534;2023-03-22T00:37:44;98400.38;;;10.44;38.54
63321;BME280;49449;48.800;9.534;2023-03-22T00:40:13;98383.97;;;10.31;38.64
63321;BME280;49449;48.800;9.534;2023-03-22T00:42:43;98390.19;;;10.24;38.70
63321;BME280;49449;48.800;9.534;2023-03-22T00:45:11;98386.00;;;10.17;38.77
63321;BME280;49449;48.800;9.534;2023-03-22T00:47:39;98388.09;;;10.03;39.02
63321;BME280;49449;48.800;9.534;2023-03-22T00:50:07;98389.91;;;9.91;39.20
63321;BME280;49449;48.800;9.534;2023-03-22T00:52:37;98385.06;;;9.88;39.28
63321;BME280;49449;48.800;9.534;2023-03-22T00:55:06;98383.44;;;9.86;39.24
63321;BME280;49449;48.800;9.534;2023-03-22T00:57:34;98384.25;;;9.87;39.12
63321;BME280;49449;48.800;9.534;2023-03-22T01:00:02;98376.22;;;9.94;39.02
63321;BME280;49449;48.800;9.534;2023-03-22T01:02:42;98376.59;;;9.97;39.08
63321;BME280;49449;48.800;9.534;2023-03-22T01:05:10;98384.41;;;10.04;38.76
63321;BME280;49449;48.800;9.534;2023-03-22T01:07:42;98385.69;;;10.01;38.94
63321;BME280;49449;48.800;9.534;2023-03-22T01:10:10;98380.75;;;10.05;38.65
63321;BME280;49449;48.800;9.534;2023-03-22T01:12:38;98381.53;;;10.05;38.62
63321;BME280;49449;48.800;9.534;2023-03-22T01:15:07;98377.63;;;10.08;38.56
63321;BME280;49449;48.800;9.534;2023-03-22T01:17:35;98379.34;;;10.02;38.50
63321;BME280;49449;48.800;9.534;2023-03-22T01:20:03;98378.31;;;9.92;38.63
63321;BME280;49449;48.800;9.534;2023-03-22T01:22:32;98374.88;;;9.91;38.96
63321;BME280;49449;48.800;9.534;2023-03-22T01:25:01;98363.13;;;9.87;38.78
63321;BME280;49449;48.800;9.534;2023-03-22T01:27:29;98360.69;;;9.74;39.08
63321;BME280;49449;48.800;9.534;2023-03-22T01:29:57;98358.72;;;9.69;39.10
63321;BME280;49449;48.800;9.534;2023-03-22T01:32:25;98360.22;;;9.65;39.22
63321;BME280;49449;48.800;9.534;2023-03-22T01:34:52;98354.00;;;9.71;39.00
63321;BME280;49449;48.800;9.534;2023-03-22T01:37:21;98350.56;;;9.71;38.98
63321;BME280;49449;48.800;9.534;2023-03-22T01:39:50;98349.34;;;9.73;39.04
63321;BME280;49449;48.800;9.534;2023-03-22T01:42:20;98352.91;;;9.79;38.93
63321;BME280;49449;48.800;9.534;2023-03-22T01:45:31;98348.06;;;9.76;39.04
63321;BME280;49449;48.800;9.534;2023-03-22T01:48:04;98355.75;;;9.77;38.79
63321;BME280;49449;48.800;9.534;2023-03-22T01:50:32;98345.44;;;9.76;38.81
63321;BME280;49449;48.800;9.534;2023-03-22T01:53:03;98344.41;;;9.77;38.59
63321;BME280;49449;48.800;9.534;2023-03-22T01:55:32;98340.16;;;9.76;39.26
63321;BME280;49449;48.800;9.534;2023-03-22T01:58:02;98343.84;;;9.75;38.81
63321;BME280;49449;48.800;9.534;2023-03-22T02:00:31;98343.47;;;9.71;39.11
63321;BME280;49449;48.800;9.534;2023-03-22T02:03:00;98337.38;;;9.71;39.21
63321;BME280;49449;48.800;9.534;2023-03-22T02:05:28;98336.59;;;9.70;39.30
63321;BME280;49449;48.800;9.534;2023-03-22T02:07:56;98332.81;;;9.66;39.15
63321;BME280;49449;48.800;9.534;2023-03-22T02:10:25;98326.72;;;9.65;39.20
63321;BME280;49449;48.800;9.534;2023-03-22T02:13:06;98325.56;;;9.61;39.47
63321;BME280;49449;48.800;9.534;2023-03-22T02:15:37;98329.44;;;9.59;39.45
63321;BME280;49449;48.800;9.534;2023-03-22T02:18:18;98324.06;;;9.54;39.60
63321;BME280;49449;48.800;9.534;2023-03-22T02:21:19;98325.88;;;9.53;39.50
63321;BME280;49449;48.800;9.534;2023-03-22T02:27:38;98327.25;;;9.44;39.57
63321;BME280;49449;48.800;9.534;2023-03-22T02:30:28;98324.25;;;9.40;39.54
63321;BME280;49449;48.800;9.534;2023-03-22T02:33:14;98325.25;;;9.39;39.48
63321;BME280;49449;48.800;9.534;2023-03-22T02:36:00;98327.19;;;9.32;39.45
63321;BME280;49449;48.800;9.534;2023-03-22T02:38:59;98321.56;;;9.28;39.36
63321;BME280;49449;48.800;9.534;2023-03-22T02:41:41;98316.50;;;9.27;39.32
63321;BME280;49449;48.800;9.534;2023-03-22T02:44:18;98308.50;;;9.22;39.39
63321;BME280;49449;48.800;9.534;2023-03-22T02:46:56;98315.59;;;9.21;39.59
63321;BME280;49449;48.800;9.534;2023-03-22T02:49:31;98315.81;;;9.20;39.35
63321;BME280;49449;48.800;9.534;2023-03-22T02:52:03;98318.09;;;9.16;39.49
63321;BME280;49449;48.800;9.534;2023-03-22T02:54:39;98316.34;;;9.10;39.18
63321;BME280;49449;48.800;9.534;2023-03-22T02:57:12;98310.81;;;9.00;39.37
63321;BME280;49449;48.800;9.534;2023-03-22T02:59:43;98306.72;;;8.85;39.50
63321;BME280;49449;48.800;9.534;2023-03-22T03:02:14;98312.34;;;8.89;39.67
63321;BME280;49449;48.800;9.534;2023-03-22T03:04:47;98307.38;;;8.81;39.51
63321;BME280;49449;48.800;9.534;2023-03-22T03:07:20;98312.44;;;8.82;39.57
63321;BME280;49449;48.800;9.534;2023-03-22T03:09:50;98318.28;;;8.84;39.43
63321;BME280;49449;48.800;9.534;2023-03-22T03:12:20;98314.41;;;8.87;39.27
63321;BME280;49449;48.800;9.534;2023-03-22T03:14:49;98319.31;;;8.83;39.18
63321;BME280;49449;48.800;9.534;2023-03-22T03:17:26;98315.13;;;8.76;39.39
63321;BME280;49449;48.800;9.534;2023-03-22T03:20:05;98320.19;;;8.77;39.41
63321;BME280;49449;48.800;9.534;2023-03-22T03:22:43;98317.56;;;8.77;39.26
63321;BME280;49449;48.800;9.534;2023-03-22T03:25:23;98317.25;;;8.67;39.52
63321;BME280;49449;48.800;9.534;2023-03-22T03:27:59;98318.78;;;8.56;39.50
63321;BME280;49449;48.800;9.534;2023-03-22T03:30:32;98313.09;;;8.59;39.24
63321;BME280;49449;48.800;9.534;2023-03-22T03:33:07;98330.25;;;8.62;39.31
63321;BME280;49449;48.800;9.534;2023-03-22T03:35:38;98320.41;;;8.57;39.35
63321;BME280;49449;48.800;9.534;2023-03-22T03:38:11;98322.66;;;8.53;39.52
63321;BME280;49449;48.800;9.534;2023-03-22T03:40:44;98324.88;;;8.57;39.30
63321;BME280;49449;48.800;9.534;2023-03-22T03:43:14;98321.19;;;8.58;39.36
63321;BME280;49449;48.800;9.534;2023-03-22T03:45:43;98327.25;;;8.58;39.25
63321;BME280;49449;48.800;9.534;2023-03-22T03:48:15;98326.47;;;8.58;39.18
63321;BME280;49449;48.800;9.534;2023-03-22T03:50:45;98324.50;;;8.53;39.41
63321;BME280;49449;48.800;9.534;2023-03-22T03:53:15;98334.22;;;8.52;39.60
63321;BME280;49449;48.800;9.534;2023-03-22T03:55:44;98335.25;;;8.51;39.54
63321;BME280;49449;48.800;9.534;2023-03-22T03:58:12;98328.16;;;8.52;39.78
63321;BME280;49449;48.800;9.534;2023-03-22T04:00:41;98337.06;;;8.51;39.59
63321;BME280;49449;48.800;9.534;2023-03-22T04:03:09;98331.78;;;8.51;39.80
63321;BME280;49449;48.800;9.534;2023-03-22T04:05:37;98331.00;;;8.50;39.82
63321;BME280;49449;48.800;9.534;2023-03-22T04:08:06;98325.94;;;8.49;39.80
63321;BME280;49449;48.800;9.534;2023-03-22T04:10:34;98328.78;;;8.47;39.90
63321;BME280;49449;48.800;9.534;2023-03-22T04:13:03;98334.06;;;8.47;39.81
63321;BME280;49449;48.800;9.534;2023-03-22T04:15:31;98331.63;;;8.46;39.92
63321;BME280;49449;48.800;9.534;2023-03-22T04:17:59;98329.47;;;8.43;39.83
63321;BME280;49449;48.800;9.534;2023-03-22T04:20:27;98329.69;;;8.41;39.68
63321;BME280;49449;48.800;9.534;2023-03-22T04:22:55;98331.00;;;8.32;39.58
63321;BME280;49449;48.800;9.534;2023-03-22T04:25:23;98327.84;;;8.23;39.55
63321;BME280;49449;48.800;9.534;2023-03-22T04:27:55;98332.28;;;8.23;39.62
63321;BME280;49449;48.800;9.534;2023-03-22T04:30:24;98335.28;;;8.26;39.45
63321;BME280;49449;48.800;9.534;2023-03-22T04:32:53;98330.00;;;8.26;39.42
63321;BME280;49449;48.800;9.534;2023-03-22T04:35:21;98325.94;;;8.30;39.48
63321;BME280;49449;48.800;9.534;2023-03-22T04:37:49;98326.94;;;8.29;39.82
63321;BME280;49449;48.800;9.534;2023-03-22T04:40:19;98334.47;;;8.26;39.89
63321;BME280;49449;48.800;9.534;2023-03-22T04:42:47;98328.06;;;8.22;39.94
63321;BME280;49449;48.800;9.534;2023-03-22T04:45:15;98330.91;;;8.20;39.85
63321;BME280;49449;48.800;9.534;2023-03-22T04:47:44;98328.47;;;8.19;39.83
63321;BME280;49449;48.800;9.534;2023-03-22T04:50:11;98323.06;;;8.13;39.68
63321;BME280;49449;48.800;9.534;2023-03-22T04:52:39;98326.19;;;8.04;39.76
63321;BME280;49449;48.800;9.534;2023-03-22T04:55:08;98327.25;;;7.96;39.88
63321;BME280;49449;48.800;9.534;2023-03-22T04:57:35;98322.19;;;7.94;39.70
63321;BME280;49449;48.800;9.534;2023-03-22T05:00:04;98322.41;;;7.93;39.50
63321;BME280;49449;48.800;9.534;2023-03-22T05:02:35;98320.41;;;7.95;39.59
63321;BME280;49449;48.800;9.534;2023-03-22T05:05:07;98318.78;;;7.94;39.90
63321;BME280;49449;48.800;9.534;2023-03-22T05:07:35;98320.59;;;7.93;39.68
63321;BME280;49449;48.800;9.534;2023-03-22T05:10:05;98319.00;;;7.92;39.79
63321;BME280;49449;48.800;9.534;2023-03-22T05:12:33;98316.34;;;7.92;39.91
63321;BME280;49449;48.800;9.534;2023-03-22T05:15:01;98316.78;;;7.89;40.22
63321;BME280;49449;48.800;9.534;2023-03-22T05:17:31;98307.28;;;7.88;39.96
63321;BME280;49449;48.800;9.534;2023-03-22T05:19:59;98309.13;;;7.88;40.11
63321;BME280;49449;48.800;9.534;2023-03-22T05:22:35;98305.66;;;7.87;39.99
63321;BME280;49449;48.800;9.534;2023-03-22T05:25:07;98296.81;;;7.82;40.04
63321;BME280;49449;48.800;9.534;2023-03-22T05:27:36;98289.34;;;7.78;40.14
63321;BME280;49449;48.800;9.534;2023-03-22T05:30:06;98299.50;;;7.75;40.26
63321;BME280;49449;48.800;9.534;2023-03-22T05:32:35;98300.09;;;7.77;40.22
63321;BME280;49449;48.800;9.534;2023-03-22T05:35:03;98295.44;;;7.79;40.15
63321;BME280;49449;48.800;9.534;2023-03-22T05:37:32;98300.69;;;7.79;39.98
63321;BME280;49449;48.800;9.534;2023-03-22T05:40:01;98293.81;;;7.78;39.96
63321;BME280;49449;48.800;9.534;2023-03-22T05:42:31;98295.44;;;7.79;40.07
63321;BME280;49449;48.800;9.534;2023-03-22T05:44:59;98291.19;;;7.78;39.80
63321;BME280;49449;48.800;9.534;2023-03-22T05:47:26;98282.66;;;7.83;40.12
63321;BME280;49449;48.800;9.534;2023-03-22T05:49:54;98277.41;;;7.83;40.91
63321;BME280;49449;48.800;9.534;2023-03-22T05:52:22;98281.84;;;7.82;40.64
63321;BME280;49449;48.800;9.534;2023-03-22T05:54:49;98282.06;;;7.81;41.05
63321;BME280;49449;48.800;9.534;2023-03-22T05:57:19;98279.41;;;7.81;40.92
63321;BME280;49449;48.800;9.534;2023-03-22T05:59:47;98272.56;;;7.79;41.46
63321;BME280;49449;48.800;9.534;2023-03-22T06:02:14;98281.41;;;7.85;40.99
63321;BME280;49449;48.800;9.534;2023-03-22T06:04:42;98283.63;;;7.88;41.36
63321;BME280;49449;48.800;9.534;2023-03-22T06:07:10;98278.53;;;7.93;40.93
63321;BME280;49449;48.800;9.534;2023-03-22T06:09:38;98281.31;;;7.98;40.77
63321;BME280;49449;48.800;9.534;2023-03-22T06:12:06;98283.63;;;8.07;40.59
63321;BME280;49449;48.800;9.534;2023-03-22T06:14:35;98284.53;;;8.19;39.92
63321;BME280;49449;48.800;9.534;2023-03-22T06:17:03;98278.19;;;8.27;40.02
63321;BME280;49449;48.800;9.534;2023-03-22T06:19:31;98280.09;;;8.38;39.84
63321;BME280;49449;48.800;9.534;2023-03-22T06:21:59;98290.78;;;8.43;39.74
63321;BME280;49449;48.800;9.534;2023-03-22T06:24:27;98287.63;;;8.53;39.83
63321;BME280;49449;48.800;9.534;2023-03-22T06:26:54;98291.16;;;8.65;39.67
63321;BME280;49449;48.800;9.534;2023-03-22T06:29:22;98292.63;;;8.80;39.41
63321;BME280;49449;48.800;9.534;2023-03-22T06:31:51;98294.84;;;8.95;38.62
63321;BME280;49449;48.800;9.534;2023-03-22T06:34:19;98294.34;;;9.04;38.52
63321;BME280;49449;48.800;9.534;2023-03-22T06:36:50;98298.91;;;9.09;38.76
63321;BME280;49449;48.800;9.534;2023-03-22T06:39:19;98293.69;;;9.21;38.97
63321;BME280;49449;48.800;9.534;2023-03-22T06:41:47;98308.44;;;9.40;38.44
63321;BME280;49449;48.800;9.534;2023-03-22T06:44:15;98303.75;;;9.54;38.15
63321;BME280;49449;48.800;9.534;2023-03-22T06:46:43;98309.41;;;9.70;37.96
63321;BME280;49449;48.800;9.534;2023-03-22T06:49:12;98313.69;;;9.82;37.79
63321;BME280;49449;48.800;9.534;2023-03-22T06:51:40;98320.13;;;9.98;37.66
63321;BME280;49449;48.800;9.534;2023-03-22T06:54:07;98318.19;;;9.94;37.62
63321;BME280;49449;48.800;9.534;2023-03-22T06:56:38;98314.19;;;10.03;37.63
63321;BME280;49449;48.800;9.534;2023-03-22T06:59:05;98313.00;;;9.99;37.60
63321;BME280;49449;48.800;9.534;2023-03-22T07:01:33;98321.88;;;10.16;37.33
63321;BME280;49449;48.800;9.534;2023-03-22T07:04:01;98313.38;;;10.26;37.26
63321;BME280;49449;48.800;9.534;2023-03-22T07:06:30;98319.78;;;10.42;37.15
63321;BME280;49449;48.800;9.534;2023-03-22T07:08:58;98311.59;;;10.55;36.74
63321;BME280;49449;48.800;9.534;2023-03-22T07:11:27;98321.47;;;10.72;36.74
63321;BME280;49449;48.800;9.534;2023-03-22T07:13:54;98322.94;;;10.91;36.73
63321;BME280;49449;48.800;9.534;2023-03-22T07:16:22;98311.94;;;11.11;36.42
63321;BME280;49449;48.800;9.534;2023-03-22T07:18:50;98314.38;;;11.30;36.53
63321;BME280;49449;48.800;9.534;2023-03-22T07:21:18;98308.66;;;11.50;36.10
63321;BME280;49449;48.800;9.534;2023-03-22T07:23:47;98308.66;;;11.67;36.30
63321;BME280;49449;48.800;9.534;2023-03-22T07:26:18;98303.84;;;11.81;36.17
63321;BME280;49449;48.800;9.534;2023-03-22T07:28:45;98305.97;;;11.96;36.37
63321;BME280;49449;48.800;9.534;2023-03-22T07:31:13;98307.94;;;12.05;36.71
63321;BME280;49449;48.800;9.534;2023-03-22T07:33:41;98301.56;;;12.23;36.33
63321;BME280;49449;48.800;9.534;2023-03-22T07:36:10;98301.00;;;12.38;36.02
63321;BME280;49449;48.800;9.534;2023-03-22T07:38:38;98302.88;;;12.43;36.00
63321;BME280;49449;48.800;9.534;2023-03-22T07:41:08;98303.16;;;12.63;35.66
63321;BME280;49449;48.800;9.534;2023-03-22T07:43:36;98303.13;;;12.80;35.76
63321;BME280;49449;48.800;9.534;2023-03-22T07:46:18;98307.59;;;13.02;35.58
63321;BME280;49449;48.800;9.534;2023-03-22T07:48:45;98294.50;;;13.17;35.08
63321;BME280;49449;48.800;9.534;2023-03-22T07:51:13;98302.03;;;13.31;35.06
63321;BME280;49449;48.800;9.534;2023-03-22T07:53:42;98297.13;;;13.44;35.27
63321;BME280;49449;48.800;9.534;2023-03-22T07:56:12;98299.09;;;13.54;35.05
63321;BME280;49449;48.800;9.534;2023-03-22T07:58:40;98297.59;;;13.63;34.90
63321;BME280;49449;48.800;9.534;2023-03-22T08:01:08;98296.44;;;13.59;34.66
63321;BME280;49449;48.800;9.534;2023-03-22T08:03:36;98293.94;;;13.75;34.47
63321;BME280;49449;48.800;9.534;2023-03-22T08:06:05;98300.72;;;13.93;34.18
63321;BME280;49449;48.800;9.534;2023-03-22T08:08:34;98301.38;;;14.10;34.19
63321;BME280;49449;48.800;9.534;2023-03-22T08:11:03;98290.84;;;14.26;33.00
63321;BME280;49449;48.800;9.534;2023-03-22T08:13:32;98302.06;;;14.38;33.42
63321;BME280;49449;48.800;9.534;2023-03-22T08:16:01;98307.47;;;14.53;32.97
63321;BME280;49449;48.800;9.534;2023-03-22T08:18:29;98305.44;;;14.71;32.85
63321;BME280;49449;48.800;9.534;2023-03-22T08:20:58;98307.84;;;14.83;32.23
63321;BME280;49449;48.800;9.534;2023-03-22T08:23:27;98299.66;;;14.94;31.64
63321;BME280;49449;48.800;9.534;2023-03-22T08:26:06;98305.78;;;15.00;30.80
63321;BME280;49449;48.800;9.534;2023-03-22T08:28:36;98301.81;;;15.08;31.60
63321;BME280;49449;48.800;9.534;2023-03-22T08:31:09;98311.13;;;15.15;31.97
63321;BME280;49449;48.800;9.534;2023-03-22T08:33:41;98305.59;;;15.27;30.96
63321;BME280;49449;48.800;9.534;2023-03-22T08:36:11;98298.72;;;15.47;31.22
63321;BME280;49449;48.800;9.534;2023-03-22T08:38:40;98297.09;;;15.56;30.82
63321;BME280;49449;48.800;9.534;2023-03-22T08:41:10;98290.97;;;15.66;29.78
63321;BME280;49449;48.800;9.534;2023-03-22T08:43:40;98295.50;;;15.86;30.26
63321;BME280;49449;48.800;9.534;2023-03-22T08:46:08;98291.25;;;16.05;30.11
63321;BME280;49449;48.800;9.534;2023-03-22T08:48:36;98293.59;;;16.22;29.35
63321;BME280;49449;48.800;9.534;2023-03-22T08:51:07;98289.84;;;16.34;28.75
63321;BME280;49449;48.800;9.534;2023-03-22T08:53:35;98291.13;;;16.41;29.03
63321;BME280;49449;48.800;9.534;2023-03-22T08:56:03;98283.59;;;16.59;28.33
63321;BME280;49449;48.800;9.534;2023-03-22T08:58:31;98288.34;;;16.77;27.25
63321;BME280;49449;48.800;9.534;2023-03-22T09:01:01;98281.38;;;16.87;27.84
63321;BME280;49449;48.800;9.534;2023-03-22T09:03:29;98280.59;;;16.86;27.18
63321;BME280;49449;48.800;9.534;2023-03-22T09:05:57;98273.63;;;16.80;25.64
63321;BME280;49449;48.800;9.534;2023-03-22T09:08:24;98268.50;;;16.34;25.65
63321;BME280;49449;48.800;9.534;2023-03-22T09:10:52;98272.69;;;16.55;27.42
63321;BME280;49449;48.800;9.534;2023-03-22T09:13:20;98285.72;;;16.62;25.87
63321;BME280;49449;48.800;9.534;2023-03-22T09:15:49;98275.50;;;15.78;26.26
63321;BME280;49449;48.800;9.534;2023-03-22T09:18:18;98276.78;;;14.99;27.11
63321;BME280;49449;48.800;9.534;2023-03-22T09:20:46;98263.28;;;15.57;28.05
63321;BME280;49449;48.800;9.534;2023-03-22T09:23:15;98262.72;;;16.11;27.06
63321;BME280;49449;48.800;9.534;2023-03-22T09:25:43;98258.84;;;16.48;27.33
63321;BME280;49449;48.800;9.534;2023-03-22T09:28:11;98263.00;;;16.75;25.85
63321;BME280;49449;48.800;9.534;2023-03-22T09:30:38;98251.56;;;16.69;25.92
63321;BME280;49449;48.800;9.534;2023-03-22T09:33:07;98254.97;;;16.85;27.20
63321;BME280;49449;48.800;9.534;2023-03-22T09:35:39;98252.72;;;16.53;26.63
63321;BME280;49449;48.800;9.534;2023-03-22T09:38:07;98249.47;;;16.56;26.72
63321;BME280;49449;48.800;9.534;2023-03-22T09:40:38;98250.19;;;16.82;25.64
63321;BME280;49449;48.800;9.534;2023-03-22T09:43:11;98246.94;;;16.90;26.56
63321;BME280;49449;48.800;9.534;2023-03-22T09:45:43;98253.25;;;17.04;26.53
63321;BME280;49449;48.800;9.534;2023-03-22T09:48:17;98244.53;;;17.28;24.98
63321;BME280;49449;48.800;9.534;2023-03-22T09:50:50;98236.69;;;17.42;25.59
63321;BME280;49449;48.800;9.534;2023-03-22T09:53:20;98228.06;;;17.50;25.06
63321;BME280;49449;48.800;9.534;2023-03-22T09:55:52;98235.34;;;17.74;25.76
63321;BME280;49449;48.800;9.534;2023-03-22T09:58:26;98233.09;;;17.86;24.86
63321;BME280;49449;48.800;9.534;2023-03-22T10:00:58;98227.09;;;18.00;25.30
63321;BME280;49449;48.800;9.534;2023-03-22T10:03:50;98228.97;;;17.99;26.34
63321;BME280;49449;48.800;9.534;2023-03-22T10:06:24;98222.13;;;18.12;25.38
63321;BME280;49449;48.800;9.534;2023-03-22T10:09:00;98222.03;;;18.22;25.09
63321;BME280;49449;48.800;9.534;2023-03-22T10:11:40;98214.28;;;18.21;24.59
63321;BME280;49449;48.800;9.534;2023-03-22T10:14:23;98208.31;;;18.29;27.04
63321;BME280;49449;48.800;9.534;2023-03-22T10:16:55;98210.00;;;18.20;24.13
63321;BME280;49449;48.800;9.534;2023-03-22T10:19:27;98202.00;;;17.71;24.46
63321;BME280;49449;48.800;9.534;2023-03-22T10:22:00;98200.19;;;17.91;25.31
63321;BME280;49449;48.800;9.534;2023-03-22T10:24:30;98197.50;;;17.91;24.69
63321;BME280;49449;48.800;9.534;2023-03-22T10:26:59;98196.66;;;17.95;23.97
63321;BME280;49449;48.800;9.534;2023-03-22T10:29:31;98187.09;;;17.89;24.77
63321;BME280;49449;48.800;9.534;2023-03-22T10:32:12;98176.69;;;17.88;24.13
63321;BME280;49449;48.800;9.534;2023-03-22T10:34:41;98173.00;;;17.59;23.68
63321;BME280;49449;48.800;9.534;2023-03-22T10:37:14;98172.56;;;17.76;24.18
63321;BME280;49449;48.800;9.534;2023-03-22T10:39:44;98171.75;;;18.00;24.90
63321;BME280;49449;48.800;9.534;2023-03-22T10:42:14;98171.63;;;18.10;24.90
63321;BME280;49449;48.800;9.534;2023-03-22T10:44:46;98161.00;;;18.05;25.15
63321;BME280;49449;48.800;9.534;2023-03-22T10:47:18;98167.06;;;18.11;24.73
63321;BME280;49449;48.800;9.534;2023-03-22T10:49:53;98164.97;;;17.59;24.55
63321;BME280;49449;48.800;9.534;2023-03-22T10:52:29;98162.50;;;17.04;24.89
63321;BME280;49449;48.800;9.534;2023-03-22T10:55:02;98171.25;;;17.45;24.79
63321;BME280;49449;48.800;9.534;2023-03-22T10:57:30;98159.50;;;17.16;24.62
63321;BME280;49449;48.800;9.534;2023-03-22T10:59:58;98159.22;;;17.18;25.08
63321;BME280;49449;48.800;9.534;2023-03-22T11:02:30;98163.38;;;17.29;24.92
63321;BME280;49449;48.800;9.534;2023-03-22T11:05:00;98158.34;;;17.52;24.85
63321;BME280;49449;48.800;9.534;2023-03-22T11:07:32;98153.56;;;17.49;24.12
63321;BME280;49449;48.800;9.534;2023-03-22T11:10:22;98162.31;;;16.51;25.08
63321;BME280;49449;48.800;9.534;2023-03-22T11:12:55;98158.41;;;16.78;25.61
63321;BME280;49449;48.800;9.534;2023-03-22T11:15:26;98157.38;;;17.13;25.71
63321;BME280;49449;48.800;9.534;2023-03-22T11:18:01;98157.28;;;17.23;24.82
63321;BME280;49449;48.800;9.534;2023-03-22T11:20:32;98146.41;;;17.73;24.25
63321;BME280;49449;48.800;9.534;2023-03-22T11:23:03;98154.19;;;17.94;25.16
63321;BME280;49449;48.800;9.534;2023-03-22T11:25:34;98140.00;;;18.17;23.49
63321;BME280;49449;48.800;9.534;2023-03-22T11:28:09;98143.44;;;18.42;23.99
63321;BME280;49449;48.800;9.534;2023-03-22T11:30:57;98136.41;;;18.65;24.40
63321;BME280;49449;48.800;9.534;2023-03-22T11:33:25;98130.47;;;18.87;23.85
63321;BME280;49449;48.800;9.534;2023-03-22T11:35:54;98132.94;;;18.84;23.28
63321;BME280;49449;48.800;9.534;2023-03-22T11:38:29;98119.94;;;18.96;23.87
63321;BME280;49449;48.800;9.534;2023-03-22T11:41:06;98119.22;;;18.71;23.11
63321;BME280;49449;48.800;9.534;2023-03-22T11:43:36;98126.97;;;18.54;23.06
63321;BME280;49449;48.800;9.534;2023-03-22T11:46:06;98132.75;;;18.42;23.50
63321;BME280;49449;48.800;9.534;2023-03-22T11:48:35;98127.03;;;18.49;24.19
63321;BME280;49449;48.800;9.534;2023-03-22T11:51:07;98116.81;;;18.89;25.10
63321;BME280;49449;48.800;9.534;2023-03-22T11:53:40;98115.59;;;19.14;23.52
63321;BME280;49449;48.800;9.534;2023-03-22T11:56:10;98104.50;;;19.35;23.46
63321;BME280;49449;48.800;9.534;2023-03-22T11:58:44;98098.38;;;19.34;24.35
63321;BME280;49449;48.800;9.534;2023-03-22T12:01:17;98097.31;;;19.49;23.23
63321;BME280;49449;48.800;9.534;2023-03-22T12:03:50;98093.00;;;19.34;23.06
63321;BME280;49449;48.800;9.534;2023-03-22T12:06:21;98088.41;;;18.74;22.66
63321;BME280;49449;48.800;9.534;2023-03-22T12:08:54;98083.75;;;18.47;22.78
63321;BME280;49449;48.800;9.534;2023-03-22T12:11:27;98070.31;;;18.66;22.64
63321;BME280;49449;48.800;9.534;2023-03-22T12:13:59;98078.63;;;18.31;22.27
63321;BME280;49449;48.800;9.534;2023-03-22T12:16:33;98068.53;;;18.04;22.45
63321;BME280;49449;48.800;9.534;2023-03-22T12:19:12;98077.28;;;17.91;22.51
63321;BME280;49449;48.800;9.534;2023-03-22T12:21:44;98067.34;;;18.34;23.00
63321;BME280;49449;48.800;9.534;2023-03-22T12:24:23;98059.53;;;18.38;22.05
63321;BME280;49449;48.800;9.534;2023-03-22T12:26:56;98059.59;;;18.14;21.80
63321;BME280;49449;48.800;9.534;2023-03-22T12:29:25;98055.16;;;18.04;21.21
63321;BME280;49449;48.800;9.534;2023-03-22T12:31:58;98050.63;;;18.24;21.73
63321;BME280;49449;48.800;9.534;2023-03-22T12:34:35;98053.84;;;18.26;21.85
63321;BME280;49449;48.800;9.534;2023-03-22T12:37:06;98033.50;;;18.44;21.38
63321;BME280;49449;48.800;9.534;2023-03-22T12:39:39;98054.78;;;18.68;21.62
63321;BME280;49449;48.800;9.534;2023-03-22T12:42:13;98046.44;;;18.56;21.22
63321;BME280;49449;48.800;9.534;2023-03-22T12:44:44;98039.19;;;18.56;21.54
63321;BME280;49449;48.800;9.534;2023-03-22T12:47:23;98051.78;;;18.17;21.42
63321;BME280;49449;48.800;9.534;2023-03-22T12:49:56;98057.09;;;17.31;22.27
63321;BME280;49449;48.800;9.534;2023-03-22T12:52:30;98038.66;;;17.59;22.20
63321;BME280;49449;48.800;9.534;2023-03-22T12:55:18;98030.88;;;18.01;21.94
63321;BME280;49449;48.800;9.534;2023-03-22T12:57:47;98023.31;;;18.27;22.34
63321;BME280;49449;48.800;9.534;2023-03-22T13:00:18;98021.94;;;18.48;22.61
63321;BME280;49449;48.800;9.534;2023-03-22T13:02:56;98019.94;;;18.40;22.02
63321;BME280;49449;48.800;9.534;2023-03-22T13:05:27;98022.56;;;18.59;23.20
63321;BME280;49449;48.800;9.534;2023-03-22T13:07:55;98014.22;;;18.47;21.46
63321;BME280;49449;48.800;9.534;2023-03-22T13:13:44;98014.84;;;18.58;19.57
63321;BME280;49449;48.800;9.534;2023-03-22T13:16:16;98016.44;;;18.72;22.47
63321;BME280;49449;48.800;9.534;2023-03-22T13:19:02;98009.97;;;18.92;22.76
63321;BME280;49449;48.800;9.534;2023-03-22T13:21:47;98008.41;;;19.05;23.16
63321;BME280;49449;48.800;9.534;2023-03-22T13:24:20;98015.25;;;19.11;23.15
63321;BME280;49449;48.800;9.534;2023-03-22T13:26:49;98004.13;;;19.18;22.82
63321;BME280;49449;48.800;9.534;2023-03-22T13:29:21;97996.50;;;19.11;20.93
63321;BME280;49449;48.800;9.534;2023-03-22T13:31:54;97997.00;;;19.27;22.02